createdAt,value
2022-09-25T12:39:52.901Z,63.70
2022-09-25T12:42:32.521Z,65.50
2022-09-25T12:45:23.192Z,65.80
2022-09-25T12:47:59.398Z,65.80
2022-09-25T12:50:25.539Z,66.10
2022-09-25T12:52:50.351Z,66.10
2022-09-25T12:55:30.327Z,66.30
2022-09-25T12:58:01.063Z,66.30
2022-09-25T13:00:23.976Z,66.20
2022-09-25T13:02:49.012Z,66.00
2022-09-25T13:05:15.099Z,66.00
2022-09-25T13:07:45.983Z,65.90
2022-09-25T13:10:22.603Z,65.80
2022-09-25T13:12:44.151Z,65.80
2022-09-25T13:15:05.084Z,65.70
2022-09-25T13:17:26.152Z,65.20
2022-09-25T13:19:46.955Z,64.30
2022-09-25T13:22:10.430Z,63.50
2022-09-25T13:24:39.399Z,62.60
2022-09-25T13:27:04.848Z,62.10
2022-09-25T13:29:38.971Z,61.90
2022-09-25T13:32:07.781Z,61.60
2022-09-25T13:34:34.003Z,61.40
2022-09-25T13:36:56.401Z,61.30
2022-09-25T13:39:35.799Z,61.40
2022-09-25T13:41:58.701Z,61.20
2022-09-25T13:44:42.289Z,61.20
2022-09-25T13:47:23.836Z,60.90
2022-09-25T13:50:03.559Z,61.00
2022-09-25T13:52:32.366Z,61.00
2022-09-25T13:55:07.775Z,60.90
2022-09-25T13:58:01.967Z,60.70
2022-09-25T14:00:23.583Z,60.70
2022-09-25T14:02:46.521Z,60.80
2022-09-25T14:05:07.710Z,60.60
2022-09-25T14:07:29.837Z,60.60
2022-09-25T14:09:55.348Z,60.60
2022-09-25T14:12:26.185Z,60.40
2022-09-25T14:14:58.443Z,60.40
2022-09-25T14:17:20.081Z,60.40
2022-09-25T14:19:43.905Z,60.40
2022-09-25T14:22:06.037Z,60.80
2022-09-25T14:24:30.896Z,61.30
2022-09-25T14:26:52.347Z,61.10
2022-09-25T14:29:18.451Z,60.70
2022-09-25T14:31:43.811Z,60.80
2022-09-25T14:34:07.764Z,60.60
2022-09-25T14:36:36.956Z,60.40
2022-09-25T14:39:04.806Z,60.30
2022-09-25T14:41:44.251Z,60.30
2022-09-25T14:44:05.124Z,60.20
2022-09-25T14:46:26.360Z,60.10
2022-09-25T14:48:56.376Z,60.10
2022-09-25T14:51:25.808Z,60.30
2022-09-25T14:53:53.362Z,60.30
2022-09-25T14:56:15.717Z,60.20
2022-09-25T14:58:37.737Z,60.10
2022-09-25T15:01:01.215Z,60.00
2022-09-25T15:03:25.387Z,60.00
2022-09-25T15:05:48.286Z,60.10
2022-09-25T15:08:23.708Z,60.10
2022-09-25T15:10:44.876Z,60.20
2022-09-25T15:13:16.254Z,60.30
2022-09-25T15:15:38.653Z,60.50
2022-09-25T15:18:02.668Z,60.20
2022-09-25T15:20:25.206Z,59.90
2022-09-25T15:22:55.045Z,59.90
2022-09-25T15:25:21.550Z,59.90
2022-09-25T15:27:42.926Z,59.90
2022-09-25T15:30:05.322Z,59.80
2022-09-25T15:32:28.855Z,59.90
2022-09-25T15:34:51.148Z,59.80
2022-09-25T15:37:26.463Z,59.80
2022-09-25T15:39:47.696Z,59.80
2022-09-25T15:42:12.205Z,59.80
2022-09-25T15:44:33.235Z,59.70
2022-09-25T15:46:55.106Z,59.70
2022-09-25T15:49:18.489Z,59.80
2022-09-25T15:51:42.633Z,59.80
2022-09-25T15:54:28.442Z,59.80
2022-09-25T15:56:53.445Z,59.80
2022-09-25T15:59:19.772Z,59.90
2022-09-25T16:02:00.642Z,59.80
2022-09-25T16:04:41.610Z,59.70
2022-09-25T16:07:20.346Z,59.70
2022-09-25T16:09:47.114Z,59.70
2022-09-25T16:12:12.061Z,59.70
2022-09-25T16:14:33.041Z,59.70
2022-09-25T16:16:53.891Z,59.70
2022-09-25T16:19:41.342Z,59.60
2022-09-25T16:22:14.504Z,59.60
2022-09-25T16:24:35.467Z,59.50
2022-09-25T16:26:58.287Z,59.50
2022-09-25T16:29:21.701Z,59.60
2022-09-25T16:31:43.947Z,59.50
2022-09-25T16:34:05.779Z,59.50
2022-09-25T16:36:28.322Z,59.60
2022-09-25T16:39:08.010Z,59.50
2022-09-25T16:41:29.697Z,59.60
2022-09-25T16:44:14.296Z,59.50
2022-09-25T16:46:35.280Z,59.50
2022-09-25T16:49:00.848Z,59.50
2022-09-25T16:51:22.847Z,60.30
2022-09-25T16:53:45.043Z,62.60
2022-09-25T16:56:06.065Z,63.20
2022-09-25T16:58:27.133Z,64.30
2022-09-25T17:00:48.006Z,65.80
2022-09-25T17:03:10.305Z,66.40
2022-09-25T17:05:31.413Z,66.30
2022-09-25T17:07:53.342Z,64.60
2022-09-25T17:10:16.222Z,63.60
2022-09-25T17:12:37.806Z,63.00
2022-09-25T17:14:59.499Z,62.70
2022-09-25T17:17:21.994Z,62.60
2022-09-25T17:19:43.293Z,62.70
2022-09-25T17:22:04.309Z,62.40
2022-09-25T17:24:27.027Z,62.20
2022-09-25T17:26:48.210Z,62.70
2022-09-25T17:29:09.354Z,63.00
2022-09-25T17:31:30.504Z,63.00
2022-09-25T17:33:51.224Z,63.00
2022-09-25T17:36:12.870Z,63.10
2022-09-25T17:38:34.176Z,62.70
2022-09-25T17:41:00.473Z,62.10
2022-09-25T17:43:24.606Z,62.30
2022-09-25T17:45:49.184Z,62.40
2022-09-25T17:48:10.159Z,62.70
2022-09-25T17:50:35.797Z,62.60
2022-09-25T17:52:56.585Z,62.80
2022-09-25T17:55:19.008Z,62.70
2022-09-25T17:57:39.900Z,62.70
2022-09-25T18:00:01.096Z,62.70
2022-09-25T18:02:22.454Z,62.70
2022-09-25T18:04:44.896Z,62.70
2022-09-25T18:07:06.687Z,62.70
2022-09-25T18:09:27.870Z,62.90
2022-09-25T18:11:49.001Z,63.20
2022-09-25T18:14:11.354Z,63.50
2022-09-25T18:16:32.742Z,63.20
2022-09-25T18:19:12.813Z,62.80
2022-09-25T18:21:52.666Z,62.80
2022-09-25T18:24:13.981Z,62.50
2022-09-25T18:26:34.971Z,62.70
2022-09-25T18:28:55.981Z,62.70
2022-09-25T18:31:17.025Z,62.30
2022-09-25T18:33:37.926Z,63.10
2022-09-25T18:36:00.168Z,63.30
2022-09-25T18:38:21.638Z,63.20
2022-09-25T18:40:42.819Z,62.70
2022-09-25T18:43:03.766Z,63.30
2022-09-25T18:45:24.705Z,63.30
2022-09-25T18:47:47.007Z,63.20
2022-09-25T18:50:10.300Z,62.90
2022-09-25T18:52:35.062Z,63.60
2022-09-25T18:54:56.260Z,63.80
2022-09-25T18:57:17.991Z,63.60
2022-09-25T18:59:39.654Z,63.70
2022-09-25T19:02:00.720Z,63.70
2022-09-25T19:04:21.827Z,63.70
2022-09-25T19:06:42.857Z,63.80
2022-09-25T19:09:05.247Z,63.80
2022-09-25T19:11:27.160Z,63.90
2022-09-25T19:13:49.878Z,63.80
2022-09-25T19:16:11.455Z,64.10
2022-09-25T19:18:32.848Z,63.80
2022-09-25T19:20:54.663Z,63.60
2022-09-25T19:23:16.027Z,63.50
2022-09-25T19:25:38.496Z,63.10
2022-09-25T19:27:59.882Z,63.10
2022-09-25T19:30:20.796Z,62.80
2022-09-25T19:32:41.895Z,62.80
2022-09-25T19:35:03.179Z,63.00
2022-09-25T19:37:27.795Z,63.10
2022-09-25T19:40:07.641Z,63.20
2022-09-25T19:42:33.829Z,63.20
2022-09-25T19:44:56.792Z,63.20
2022-09-25T19:47:21.830Z,63.30
2022-09-25T19:49:42.887Z,63.30
2022-09-25T19:52:03.926Z,63.30
2022-09-25T19:54:25.226Z,63.20
2022-09-25T19:56:46.347Z,63.20
2022-09-25T19:59:08.946Z,63.30
2022-09-25T20:01:30.663Z,63.30
2022-09-25T20:03:52.090Z,63.30
2022-09-25T20:06:13.235Z,63.20
2022-09-25T20:08:34.990Z,63.30
2022-09-25T20:10:55.967Z,63.30
2022-09-25T20:13:17.356Z,63.20
2022-09-25T20:15:38.605Z,63.30
2022-09-25T20:17:59.833Z,63.30
2022-09-25T20:20:20.946Z,63.30
2022-09-25T20:22:46.370Z,63.30
2022-09-25T20:25:07.839Z,63.30
2022-09-25T20:27:29.407Z,63.20
2022-09-25T20:29:50.686Z,63.20
2022-09-25T20:32:11.587Z,63.20
2022-09-25T20:34:32.636Z,63.20
2022-09-25T20:36:53.673Z,63.10
2022-09-25T20:39:20.636Z,63.20
2022-09-25T20:41:44.533Z,63.20
2022-09-25T20:44:06.160Z,63.30
2022-09-25T20:46:27.718Z,63.30
2022-09-25T20:48:51.535Z,63.20
2022-09-25T20:51:17.158Z,63.20
2022-09-25T20:53:38.796Z,63.30
2022-09-25T20:56:26.225Z,63.50
2022-09-25T20:58:52.912Z,63.20
2022-09-25T21:01:15.734Z,63.30
2022-09-25T21:03:37.898Z,63.30
2022-09-25T21:06:07.961Z,63.50
2022-09-25T21:08:29.795Z,63.30
2022-09-25T21:10:50.816Z,63.20
2022-09-25T21:13:11.725Z,63.30
2022-09-25T21:15:33.326Z,63.40
2022-09-25T21:17:54.661Z,63.50
2022-09-25T21:20:15.985Z,63.30
2022-09-25T21:22:37.628Z,63.30
2022-09-25T21:25:00.503Z,63.50
2022-09-25T21:27:23.174Z,63.50
2022-09-25T21:29:44.663Z,63.50
2022-09-25T21:32:05.642Z,63.50
2022-09-25T21:34:28.426Z,63.50
2022-09-25T21:36:49.855Z,63.60
2022-09-25T21:39:11.128Z,63.60
2022-09-25T21:41:32.234Z,64.10
2022-09-25T21:43:54.635Z,65.50
2022-09-25T21:46:18.386Z,65.70
2022-09-25T21:48:40.761Z,65.70
2022-09-25T21:51:02.345Z,65.30
2022-09-25T21:53:24.452Z,65.00
2022-09-25T21:55:45.767Z,64.80
2022-09-25T21:58:06.670Z,64.70
2022-09-25T22:00:27.732Z,64.60
2022-09-25T22:02:50.388Z,64.70
2022-09-25T22:05:15.164Z,64.50
2022-09-25T22:07:36.361Z,64.60
2022-09-25T22:09:57.303Z,64.60
2022-09-25T22:12:18.163Z,64.70
2022-09-25T22:14:39.753Z,64.70
2022-09-25T22:17:01.095Z,64.80
2022-09-25T22:19:26.699Z,64.70
2022-09-25T22:21:48.621Z,65.00
2022-09-25T22:24:10.159Z,64.70
2022-09-25T22:26:31.592Z,64.80
2022-09-25T22:28:53.084Z,64.70
2022-09-25T22:31:21.731Z,64.90
